Bookmark and Share
Track history (hours):
 

Quinsam

Last reported at 2014-Apr-18 17:33 UTC. Time now 2014-Apr-18 18:11 UTC.
Position N 49°10' W 123°56'.

Length 88 m; draft 1.5 m.

Type: Ship. MMSI: 316001266.

NotesDate/timePositionNaut miles runAvg speedWind from/ knotsBaromVisibWave heightAir tempDewpointWater temp
2014-Apr-18 17:33N 49°10' W 123°56'0 0.4
2014-Apr-18 16:33N 49°10' W 123°55'2 1.9
2014-Apr-18 15:32N 49°11' W 123°52'1 0.6
2014-Apr-18 14:33N 49°11' W 123°52'0 0.5
2014-Apr-18 13:33N 49°11' W 123°52'1 0.8
2014-Apr-18 12:34N 49°10' W 123°53'1 0.6
2014-Apr-18 10:19N 49°11' W 123°52'0 0.0
2014-Apr-18 09:07N 49°11' W 123°52'0 0.0
2014-Apr-18 08:31N 49°11' W 123°52'3 1.5
2014-Apr-18 06:33N 49°10' W 123°56'0 0.0
2014-Apr-18 05:29N 49°10' W 123°56'0 0.0
2014-Apr-18 04:31N 49°10' W 123°56'0 0.0
2014-Apr-18 03:32N 49°10' W 123°56'1 0.9
2014-Apr-18 02:33N 49°10' W 123°55'2 1.6
2014-Apr-18 01:33N 49°11' W 123°52'1 0.5
2014-Apr-18 00:32N 49°11' W 123°52'1 0.7
2014-Apr-17 23:33N 49°11' W 123°53'2 2.2
2014-Apr-17 22:33N 49°10' W 123°56'0 0.0
2014-Apr-17 21:33N 49°10' W 123°56'2 1.9
2014-Apr-17 20:33N 49°11' W 123°53'1 1.0
2014-Apr-17 19:33N 49°11' W 123°52'1 0.6
2014-Apr-17 18:33N 49°11' W 123°52'2 2.4
2014-Apr-17 17:33N 49°10' W 123°56'0 0.0
2014-Apr-17 16:33N 49°10' W 123°56'2 2.3
2014-Apr-17 15:33N 49°11' W 123°53'1 0.6
2014-Apr-17 14:34N 49°11' W 123°52'1 0.5
2014-Apr-17 13:33N 49°11' W 123°52'1 0.8
2014-Apr-17 12:33N 49°10' W 123°53'1 0.6
2014-Apr-17 10:23N 49°11' W 123°52'0 0.0
2014-Apr-17 09:29N 49°11' W 123°52'0 0.0
2014-Apr-17 08:29N 49°11' W 123°52'3 1.5
2014-Apr-17 06:33N 49°10' W 123°56'0 0.0
2014-Apr-17 05:33N 49°10' W 123°56'0 0.0
2014-Apr-17 04:30N 49°10' W 123°56'1 1.3
2014-Apr-17 03:34N 49°10' W 123°54'1 0.6
2014-Apr-17 02:34N 49°11' W 123°53'1 0.8
2014-Apr-17 01:33N 49°11' W 123°52'0 0.2
2014-Apr-17 00:33N 49°11' W 123°52'1 1.3
2014-Apr-16 23:34N 49°10' W 123°54'2 1.6
2014-Apr-16 22:33N 49°10' W 123°56'0 0.1
2014-Apr-16 21:34N 49°10' W 123°56'2 2.1
2014-Apr-16 20:33N 49°11' W 123°53'1 0.8
2014-Apr-16 19:33N 49°11' W 123°52'2 2.1
2014-Apr-16 18:33N 49°10' W 123°55'1 0.8
2014-Apr-16 17:33N 49°10' W 123°56'0 0.0
2014-Apr-16 16:33N 49°10' W 123°56'2 2.3
2014-Apr-16 15:33N 49°11' W 123°52'1 0.6
2014-Apr-16 14:33N 49°11' W 123°52'0 0.5
2014-Apr-16 13:33N 49°11' W 123°52'1 0.8
2014-Apr-16 12:33N 49°10' W 123°53'1 0.9
2014-Apr-16 11:14N 49°11' W 123°52'0 0.0
2014-Apr-16 10:08N 49°11' W 123°52'0 0.0
2014-Apr-16 08:29N 49°11' W 123°52'0 0.0
2014-Apr-16 07:32N 49°11' W 123°52'3 2.7
2014-Apr-16 06:33N 49°10' W 123°55'0 0.0
2014-Apr-16 05:33N 49°10' W 123°55'0 0.4
2014-Apr-16 04:33N 49°10' W 123°55'1 0.7
2014-Apr-16 03:33N 49°10' W 123°54'0 0.2
2014-Apr-16 02:33N 49°10' W 123°53'1 0.9
2014-Apr-16 01:33N 49°11' W 123°52'0 0.3
2014-Apr-16 00:26N 49°11' W 123°52'1 0.9
2014-Apr-15 23:33N 49°11' W 123°53'2 2.1
2014-Apr-15 22:33N 49°10' W 123°56'0 0.2
2014-Apr-15 21:33N 49°10' W 123°55'2 2.1
2014-Apr-15 20:31N 49°11' W 123°52'0 0.4
2014-Apr-15 19:25N 49°11' W 123°52'2 1.9
2014-Apr-15 18:33N 49°10' W 123°54'1 1.2
2014-Apr-15 17:33N 49°10' W 123°56'0 0.0
2014-Apr-15 16:32N 49°10' W 123°56'2 1.6
2014-Apr-15 15:33N 49°10' W 123°54'1 1.3
2014-Apr-15 14:32N 49°11' W 123°52'1 0.3
2014-Apr-15 12:34N 49°11' W 123°52'1 0.9
2014-Apr-15 11:34N 49°10' W 123°54'1 0.2
2014-Apr-15 05:33N 49°10' W 123°56'1 0.3
2014-Apr-15 03:34N 49°10' W 123°55'0 0.1
2014-Apr-15 02:34N 49°10' W 123°55'1 0.8
2014-Apr-15 01:34N 49°10' W 123°54'1 1.0
2014-Apr-15 00:32N 49°11' W 123°52'1 0.4
2014-Apr-14 22:34N 49°10' W 123°53'2 1.7
2014-Apr-14 21:33N 49°10' W 123°56'1 0.5
2014-Apr-14 20:34N 49°10' W 123°55'2 2.1
2014-Apr-14 19:31N 49°11' W 123°52'0 0.2
2014-Apr-14 18:33N 49°11' W 123°52'2 2.0
2014-Apr-14 17:33N 49°10' W 123°55'1 0.9
2014-Apr-14 16:33N 49°10' W 123°56'0 0.3
2014-Apr-14 15:33N 49°10' W 123°55'3 1.3
2014-Apr-14 13:33N 49°11' W 123°52'1 0.7
2014-Apr-14 11:33N 49°10' W 123°54'1 0.7
2014-Apr-14 09:29N 49°11' W 123°52'0 0.0
2014-Apr-14 08:32N 49°11' W 123°52'3 0.9
2014-Apr-14 05:33N 49°10' W 123°55'0 0.0
2014-Apr-13 22:33N 49°10' W 123°56'0 0.2
2014-Apr-13 21:33N 49°10' W 123°56'2 2.2
2014-Apr-13 20:32N 49°11' W 123°52'0 0.4
2014-Apr-13 19:32N 49°11' W 123°52'2 1.8
2014-Apr-13 18:33N 49°10' W 123°54'1 1.1
2014-Apr-13 17:33N 49°10' W 123°56'0 0.0
2014-Apr-13 16:33N 49°10' W 123°56'3 2.6
2014-Apr-13 15:33N 49°11' W 123°52'0 0.3
2014-Apr-13 14:32N 49°11' W 123°52'3 2.9
2014-Apr-13 13:33N 49°10' W 123°56'2 1.6
2014-Apr-13 12:33N 49°10' W 123°53'1 0.2
2014-Apr-13 07:19N 49°11' W 123°52'2 3.0
2014-Apr-13 06:34N 49°10' W 123°55'0 0.2
2014-Apr-13 05:33N 49°10' W 123°55'0 0.3
2014-Apr-13 04:33N 49°10' W 123°54'1 0.6
2014-Apr-13 03:34N 49°10' W 123°53'0 0.3
2014-Apr-13 02:33N 49°11' W 123°53'1 0.8
2014-Apr-13 01:33N 49°11' W 123°52'0 0.1
2014-Apr-13 00:20N 49°11' W 123°52'1 1.5
2014-Apr-12 23:33N 49°11' W 123°54'2 1.6
2014-Apr-12 22:31N 49°10' W 123°56'0 0.4
2014-Apr-12 21:33N 49°10' W 123°55'2 2.5
2014-Apr-12 20:33N 49°11' W 123°52'0 0.1
2014-Apr-12 19:33N 49°11' W 123°52'2 1.8
2014-Apr-12 18:33N 49°10' W 123°54'1 1.1
2014-Apr-12 17:33N 49°10' W 123°56'0 0.0
2014-Apr-12 16:32N 49°10' W 123°56'3 2.8
2014-Apr-12 15:33N 49°11' W 123°52'0 0.2
2014-Apr-12 14:32N 49°11' W 123°52'1 0.6
2014-Apr-12 13:33N 49°11' W 123°52'1 1.0
2014-Apr-12 12:34N 49°10' W 123°54'2 0.5
2014-Apr-12 09:32N 49°11' W 123°52'0 0.0
2014-Apr-12 08:29N 49°11' W 123°52'0 0.0
2014-Apr-12 07:20N 49°11' W 123°52'3 3.4
2014-Apr-12 06:33N 49°10' W 123°55'1 0.7
2014-Apr-12 05:34N 49°10' W 123°54'0 0.1
2014-Apr-12 04:33N 49°10' W 123°54'1 0.8
2014-Apr-12 03:33N 49°10' W 123°53'0 0.2
2014-Apr-12 02:33N 49°11' W 123°53'1 0.8
2014-Apr-12 01:34N 49°11' W 123°52'0 0.0
2014-Apr-12 00:31N 49°11' W 123°52'1 1.3
2014-Apr-11 23:33N 49°10' W 123°53'2 1.7
2014-Apr-11 22:32N 49°10' W 123°56'1 0.6
2014-Apr-11 21:33N 49°10' W 123°55'2 2.0
2014-Apr-11 20:32N 49°11' W 123°52'0 0.3
2014-Apr-11 19:29N 49°11' W 123°52'2 2.5
2014-Apr-11 18:33N 49°10' W 123°55'1 0.6
2014-Apr-11 17:32N 49°10' W 123°56'1 0.6
2014-Apr-11 16:33N 49°10' W 123°55'2 2.2
2014-Apr-11 15:34N 49°11' W 123°52'0 0.1
2014-Apr-11 14:33N 49°11' W 123°52'1 0.7
2014-Apr-11 13:33N 49°11' W 123°53'1 0.9
2014-Apr-11 12:34N 49°10' W 123°54'2 0.3
2014-Apr-11 07:27N 49°11' W 123°52'2 2.6
2014-Apr-11 06:33N 49°10' W 123°55'0 0.3
2014-Apr-11 05:33N 49°10' W 123°54'0 0.5
2014-Apr-11 04:33N 49°10' W 123°54'1 0.6
2014-Apr-11 03:33N 49°11' W 123°53'0 0.1
2014-Apr-11 02:33N 49°11' W 123°53'1 0.8
2014-Apr-11 01:29N 49°11' W 123°52'0 0.1
2014-Apr-11 00:31N 49°11' W 123°52'1 1.6
2014-Apr-10 23:33N 49°10' W 123°54'1 1.4
2014-Apr-10 22:33N 49°10' W 123°56'0 0.4
2014-Apr-10 21:33N 49°10' W 123°55'2 2.3
2014-Apr-10 20:33N 49°11' W 123°52'0 0.2
2014-Apr-10 19:33N 49°11' W 123°52'2 2.4
2014-Apr-10 18:33N 49°10' W 123°55'0 0.5
2014-Apr-10 17:33N 49°10' W 123°56'1 0.6
2014-Apr-10 16:34N 49°10' W 123°55'2 2.3
2014-Apr-10 15:33N 49°11' W 123°52'0 0.1
2014-Apr-10 14:31N 49°11' W 123°52'1 0.6
2014-Apr-10 13:34N 49°11' W 123°52'1 1.0
2014-Apr-10 12:33N 49°10' W 123°54'1 0.1
2014-Apr-10 06:34N 49°10' W 123°55'1 0.6
2014-Apr-10 05:34N 49°10' W 123°54'1 1.2
2014-Apr-10 04:31N 49°10' W 123°56'2 1.9
2014-Apr-10 03:33N 49°11' W 123°53'0 0.2
2014-Apr-10 02:33N 49°11' W 123°53'1 0.6
2014-Apr-10 01:31N 49°11' W 123°52'0 0.3
2014-Apr-10 00:34N 49°11' W 123°52'2 1.6
2014-Apr-09 23:33N 49°10' W 123°54'1 1.3
2014-Apr-09 22:33N 49°10' W 123°56'0 0.4
2014-Apr-09 21:33N 49°10' W 123°55'2 2.2
2014-Apr-09 20:34N 49°11' W 123°52'0 0.2
2014-Apr-09 19:33N 49°11' W 123°52'1 1.5
2014-Apr-09 18:33N 49°10' W 123°54'1 1.4
2014-Apr-09 17:32N 49°10' W 123°56'0 0.2
2014-Apr-09 16:34N 49°10' W 123°56'3 2.6
2014-Apr-09 15:34N 49°11' W 123°52'0 0.2
2014-Apr-09 14:28N 49°11' W 123°52'1 0.7
2014-Apr-09 13:33N 49°11' W 123°53'1 0.5
2014-Apr-09 12:33N 49°10' W 123°53'1 0.2
2014-Apr-09 06:33N 49°10' W 123°55'0 0.4
2014-Apr-09 05:34N 49°10' W 123°54'0 0.2
2014-Apr-09 04:33N 49°10' W 123°54'1 0.7
2014-Apr-09 03:33N 49°11' W 123°53'0 0.1
2014-Apr-09 02:33N 49°11' W 123°53'1 0.6
2014-Apr-09 01:32N 49°11' W 123°52'0 0.2
2014-Apr-09 00:33N 49°11' W 123°52'1 1.1
2014-Apr-08 23:33N 49°10' W 123°53'2 1.7
2014-Apr-08 22:31N 49°10' W 123°56'0 0.3
2014-Apr-08 21:33N 49°10' W 123°55'2 1.9
2014-Apr-08 20:32N 49°11' W 123°53'1 0.7
2014-Apr-08 19:32N 49°11' W 123°52'2 1.6
2014-Apr-08 18:33N 49°10' W 123°54'  

Dump ship's entire track history

sailing weather and tide predictions

Quinsam — VY6800 — position and weather